createdAt,value
2022-10-16T00:00:35.000Z,1002.9
2022-10-16T00:01:47.000Z,1002.8
2022-10-16T00:02:59.000Z,1002.8
2022-10-16T00:04:11.000Z,1002.8
2022-10-16T00:05:23.000Z,1002.8
2022-10-16T00:06:35.000Z,1002.8
2022-10-16T00:07:47.000Z,1002.8
2022-10-16T00:08:59.000Z,1002.9
2022-10-16T00:10:11.000Z,1002.9
2022-10-16T00:11:23.000Z,1003
2022-10-16T00:12:35.000Z,1002.9
2022-10-16T00:13:48.000Z,1003
2022-10-16T00:15:00.000Z,1003
2022-10-16T00:16:12.000Z,1003
2022-10-16T00:17:24.000Z,1003
2022-10-16T00:18:36.000Z,1003.1
2022-10-16T00:19:49.000Z,1003.1
2022-10-16T00:21:01.000Z,1003.1
2022-10-16T00:22:13.000Z,1003.2
2022-10-16T00:23:24.000Z,1003.2
2022-10-16T00:24:36.000Z,1003.3
2022-10-16T00:25:48.000Z,1003.3
2022-10-16T00:27:01.000Z,1003.2
2022-10-16T00:28:13.000Z,1003.3
2022-10-16T00:29:25.000Z,1003.2
2022-10-16T00:30:37.000Z,1003.2
2022-10-16T00:31:49.000Z,1003.2
2022-10-16T00:33:02.000Z,1003.2
2022-10-16T00:34:14.000Z,1003.1
2022-10-16T00:35:26.000Z,1003.2
2022-10-16T00:36:38.000Z,1003.1
2022-10-16T00:37:50.000Z,1003.1
2022-10-16T00:39:02.000Z,1003.1
2022-10-16T00:41:26.000Z,1003.1
2022-10-16T00:42:38.000Z,1003.1
2022-10-16T00:43:50.000Z,1003
2022-10-16T00:45:02.000Z,1003
2022-10-16T00:46:15.000Z,1003
2022-10-16T00:46:23.738Z,1003.1
2022-10-16T00:48:39.000Z,1003
2022-10-16T00:49:51.000Z,1003
2022-10-16T00:51:03.000Z,1003
2022-10-16T00:52:16.000Z,1003
2022-10-16T00:53:28.000Z,1002.9
2022-10-16T00:53:36.869Z,1003
2022-10-16T00:54:39.000Z,1003
2022-10-16T00:55:51.000Z,1002.9
2022-10-16T00:57:03.000Z,1003
2022-10-16T00:58:16.000Z,1003
2022-10-16T00:59:28.000Z,1003
2022-10-16T01:00:40.000Z,1003.1
2022-10-16T01:01:52.000Z,1003
2022-10-16T01:03:04.000Z,1003
2022-10-16T01:04:16.000Z,1003
2022-10-16T01:05:29.000Z,1003.1
2022-10-16T01:06:41.000Z,1003.1
2022-10-16T01:07:53.000Z,1003
2022-10-16T01:09:05.000Z,1003.1
2022-10-16T01:10:16.000Z,1003.1
2022-10-16T01:11:29.000Z,1003.1
2022-10-16T01:12:41.000Z,1003.1
2022-10-16T01:13:53.000Z,1003
2022-10-16T01:15:05.000Z,1003
2022-10-16T01:16:17.000Z,1003.1
2022-10-16T01:17:30.000Z,1003.1
2022-10-16T01:18:42.000Z,1003.1
2022-10-16T01:19:54.000Z,1003.1
2022-10-16T01:21:06.000Z,1003.2
2022-10-16T01:22:18.000Z,1003.2
2022-10-16T01:23:30.000Z,1003.2
2022-10-16T01:24:43.000Z,1003.2
2022-10-16T01:27:06.000Z,1003.3
2022-10-16T01:28:18.000Z,1003.3
2022-10-16T01:29:30.000Z,1003.4
2022-10-16T01:30:43.000Z,1003.3
2022-10-16T01:31:55.000Z,1003.3
2022-10-16T01:32:03.869Z,1003.3
2022-10-16T01:33:07.000Z,1003.4
2022-10-16T01:34:19.000Z,1003.4
2022-10-16T01:35:31.000Z,1003.5
2022-10-16T01:36:44.000Z,1003.5
2022-10-16T01:37:56.000Z,1003.5
2022-10-16T01:39:08.000Z,1003.5
2022-10-16T01:40:20.000Z,1003.6
2022-10-16T01:41:31.000Z,1003.6
2022-10-16T01:42:43.000Z,1003.5
2022-10-16T01:43:56.000Z,1003.6
2022-10-16T01:45:08.000Z,1003.5
2022-10-16T01:46:20.000Z,1003.5
2022-10-16T01:47:31.000Z,1003.4
2022-10-16T01:48:43.000Z,1003.4
2022-10-16T01:49:56.000Z,1003.4
2022-10-16T01:51:08.000Z,1003.3
2022-10-16T01:52:20.000Z,1003.3
2022-10-16T01:53:32.000Z,1003.2
2022-10-16T01:54:44.000Z,1003.3
2022-10-16T01:55:56.000Z,1003.3
2022-10-16T01:58:21.000Z,1003.2
2022-10-16T01:59:33.000Z,1003.2
2022-10-16T02:00:45.000Z,1003.1
2022-10-16T02:01:57.000Z,1003.2
2022-10-16T02:03:09.000Z,1003.3
2022-10-16T02:03:18.729Z,1003.3
2022-10-16T02:04:21.000Z,1003.3
2022-10-16T02:05:33.000Z,1003.4
2022-10-16T02:06:45.000Z,1003.4
2022-10-16T02:07:57.000Z,1003.4
2022-10-16T02:09:10.000Z,1003.4
2022-10-16T02:10:22.000Z,1003.4
2022-10-16T02:11:34.000Z,1003.4
2022-10-16T02:12:46.000Z,1003.5
2022-10-16T02:13:58.000Z,1003.5
2022-10-16T02:15:10.000Z,1003.6
2022-10-16T02:16:23.000Z,1003.5
2022-10-16T02:17:35.000Z,1003.6
2022-10-16T02:18:46.000Z,1003.5
2022-10-16T02:19:58.000Z,1003.6
2022-10-16T02:21:10.000Z,1003.6
2022-10-16T02:22:23.000Z,1003.5
2022-10-16T02:23:35.000Z,1003.6
2022-10-16T02:24:47.000Z,1003.6
2022-10-16T02:25:59.000Z,1003.6
2022-10-16T02:27:11.000Z,1003.6
2022-10-16T02:28:23.000Z,1003.7
2022-10-16T02:29:36.000Z,1003.7
2022-10-16T02:30:48.000Z,1003.6
2022-10-16T02:32:00.000Z,1003.6
2022-10-16T02:33:12.000Z,1003.5
2022-10-16T02:34:23.000Z,1003.5
2022-10-16T02:35:36.000Z,1003.6
2022-10-16T02:36:48.000Z,1003.6
2022-10-16T02:38:00.000Z,1003.5
2022-10-16T02:39:12.000Z,1003.5
2022-10-16T02:41:37.000Z,1003.6
2022-10-16T02:42:49.000Z,1003.6
2022-10-16T02:44:01.000Z,1003.6
2022-10-16T02:45:13.000Z,1003.7
2022-10-16T02:46:25.000Z,1003.7
2022-10-16T02:46:34.446Z,1003.6
2022-10-16T02:47:37.000Z,1003.6
2022-10-16T02:48:50.000Z,1003.6
2022-10-16T02:50:01.000Z,1003.6
2022-10-16T02:51:13.000Z,1003.6
2022-10-16T02:52:25.000Z,1003.6
2022-10-16T02:53:37.000Z,1003.6
2022-10-16T02:54:50.000Z,1003.6
2022-10-16T02:56:02.000Z,1003.6
2022-10-16T02:57:14.000Z,1003.6
2022-10-16T02:58:26.000Z,1003.6
2022-10-16T02:59:38.000Z,1003.6
2022-10-16T03:00:50.000Z,1003.6
2022-10-16T03:02:03.000Z,1003.7
2022-10-16T03:03:15.000Z,1003.7
2022-10-16T03:04:27.000Z,1003.7
2022-10-16T03:06:50.000Z,1003.7
2022-10-16T03:08:03.000Z,1003.6
2022-10-16T03:09:15.000Z,1003.6
2022-10-16T03:10:27.000Z,1003.7
2022-10-16T03:11:39.000Z,1003.7
2022-10-16T03:11:48.355Z,1003.7
2022-10-16T03:12:51.000Z,1003.7
2022-10-16T03:14:04.000Z,1003.7
2022-10-16T03:15:16.000Z,1003.7
2022-10-16T03:16:28.000Z,1003.8
2022-10-16T03:17:40.000Z,1003.9
2022-10-16T03:18:52.000Z,1003.9
2022-10-16T03:20:04.000Z,1003.9
2022-10-16T03:21:16.000Z,1003.8
2022-10-16T03:22:28.000Z,1003.9
2022-10-16T03:23:40.000Z,1003.8
2022-10-16T03:24:52.000Z,1003.9
2022-10-16T03:26:04.000Z,1003.9
2022-10-16T03:27:17.000Z,1003.8
2022-10-16T03:28:29.000Z,1003.7
2022-10-16T03:29:41.000Z,1003.7
2022-10-16T03:30:53.000Z,1003.7
2022-10-16T03:32:05.000Z,1003.7
2022-10-16T03:33:18.000Z,1003.6
2022-10-16T03:34:30.000Z,1003.7
2022-10-16T03:35:42.000Z,1003.6
2022-10-16T03:36:53.000Z,1003.6
2022-10-16T03:38:05.000Z,1003.7
2022-10-16T03:39:17.000Z,1003.7
2022-10-16T03:40:30.000Z,1003.7
2022-10-16T03:41:42.000Z,1003.6
2022-10-16T03:42:54.000Z,1003.7
2022-10-16T03:44:06.000Z,1003.6
2022-10-16T03:45:18.000Z,1003.7
2022-10-16T03:46:31.000Z,1003.6
2022-10-16T03:47:43.000Z,1003.7
2022-10-16T03:48:55.000Z,1003.7
2022-10-16T03:50:07.000Z,1003.7
2022-10-16T03:51:19.000Z,1003.7
2022-10-16T03:52:30.000Z,1003.7
2022-10-16T03:53:43.000Z,1003.7
2022-10-16T03:54:55.000Z,1003.7
2022-10-16T03:56:07.000Z,1003.7
2022-10-16T03:57:19.000Z,1003.7
2022-10-16T03:58:31.000Z,1003.7
2022-10-16T03:59:44.000Z,1003.6
2022-10-16T04:00:56.000Z,1003.6
2022-10-16T04:02:08.000Z,1003.6
2022-10-16T04:03:20.000Z,1003.7
2022-10-16T04:04:32.000Z,1003.8
2022-10-16T04:05:45.000Z,1003.8
2022-10-16T04:06:57.000Z,1004
2022-10-16T04:08:08.000Z,1004
2022-10-16T04:09:20.000Z,1004
2022-10-16T04:10:32.000Z,1004
2022-10-16T04:11:44.000Z,1004
2022-10-16T04:12:57.000Z,1004
2022-10-16T04:14:09.000Z,1004
2022-10-16T04:15:21.000Z,1003.9
2022-10-16T04:16:33.000Z,1004
2022-10-16T04:17:45.000Z,1004.1
2022-10-16T04:18:58.000Z,1004.1
2022-10-16T04:20:10.000Z,1004.1
2022-10-16T04:21:22.000Z,1004.1
2022-10-16T04:22:34.000Z,1004.1
2022-10-16T04:23:45.000Z,1004.1
2022-10-16T04:24:57.000Z,1004.2
2022-10-16T04:26:10.000Z,1004.1
2022-10-16T04:27:22.000Z,1004.2
2022-10-16T04:28:34.000Z,1004.1
2022-10-16T04:29:46.000Z,1004.2
2022-10-16T04:30:58.000Z,1004.1
2022-10-16T04:32:11.000Z,1004.1
2022-10-16T04:33:23.000Z,1004.1
2022-10-16T04:34:35.000Z,1004.1
2022-10-16T04:35:47.000Z,1004.2
2022-10-16T04:36:59.000Z,1004.2
2022-10-16T04:38:12.000Z,1004.3
2022-10-16T04:39:23.000Z,1004.3
2022-10-16T04:40:35.000Z,1004.4
2022-10-16T04:41:47.000Z,1004.3
2022-10-16T04:42:59.000Z,1004.3
2022-10-16T04:44:11.000Z,1004.4
2022-10-16T04:45:24.000Z,1004.4
2022-10-16T04:46:36.000Z,1004.4
2022-10-16T04:47:48.000Z,1004.4
2022-10-16T04:49:00.000Z,1004.4
2022-10-16T04:50:12.000Z,1004.4
2022-10-16T04:51:25.000Z,1004.4
2022-10-16T04:52:37.000Z,1004.4
2022-10-16T04:53:49.000Z,1004.4
2022-10-16T04:55:00.000Z,1004.4
2022-10-16T04:56:12.000Z,1004.4
2022-10-16T04:57:25.000Z,1004.5
2022-10-16T04:58:37.000Z,1004.5
2022-10-16T04:59:49.000Z,1004.5
2022-10-16T05:01:01.000Z,1004.5
2022-10-16T05:02:13.000Z,1004.5
2022-10-16T05:03:25.000Z,1004.5
2022-10-16T05:04:38.000Z,1004.5
2022-10-16T05:05:50.000Z,1004.5
2022-10-16T05:07:02.000Z,1004.5
2022-10-16T05:08:14.000Z,1004.6
2022-10-16T05:09:26.000Z,1004.6
2022-10-16T05:10:38.000Z,1004.6
2022-10-16T05:11:50.000Z,1004.6
2022-10-16T05:13:02.000Z,1004.5
2022-10-16T05:14:14.000Z,1004.5
2022-10-16T05:15:26.000Z,1004.5
2022-10-16T05:16:38.000Z,1004.5
2022-10-16T05:17:51.000Z,1004.5
2022-10-16T05:19:03.000Z,1004.5
2022-10-16T05:20:15.000Z,1004.6
2022-10-16T05:21:27.000Z,1004.6
2022-10-16T05:22:39.000Z,1004.5
2022-10-16T05:23:52.000Z,1004.6
2022-10-16T05:25:04.000Z,1004.5
2022-10-16T05:26:15.000Z,1004.5
2022-10-16T05:27:27.000Z,1004.5
2022-10-16T05:28:39.000Z,1004.5
2022-10-16T05:31:04.000Z,1004.7
2022-10-16T05:32:16.000Z,1004.7
2022-10-16T05:33:28.000Z,1004.7
2022-10-16T05:34:40.000Z,1004.6
2022-10-16T05:35:52.000Z,1004.7
2022-10-16T05:36:01.707Z,1004.6
2022-10-16T05:37:05.000Z,1004.7
2022-10-16T05:38:17.000Z,1004.7
2022-10-16T05:39:29.000Z,1004.7
2022-10-16T05:40:41.000Z,1004.8
2022-10-16T05:41:52.000Z,1004.7
2022-10-16T05:43:05.000Z,1004.6
2022-10-16T05:44:17.000Z,1004.8
2022-10-16T05:45:29.000Z,1004.8
2022-10-16T05:46:41.000Z,1004.8
2022-10-16T05:47:53.000Z,1004.8
2022-10-16T05:49:04.000Z,1004.8
2022-10-16T05:50:17.000Z,1004.8
2022-10-16T05:51:29.000Z,1004.8
2022-10-16T05:52:41.000Z,1004.9
2022-10-16T05:53:53.000Z,1004.9
2022-10-16T05:55:05.000Z,1004.9
2022-10-16T05:56:18.000Z,1004.9
2022-10-16T05:57:30.000Z,1004.9
2022-10-16T05:58:42.000Z,1004.8
2022-10-16T05:59:54.000Z,1004.8
2022-10-16T06:01:06.000Z,1004.8
2022-10-16T06:02:19.000Z,1004.8
2022-10-16T06:03:31.000Z,1004.8
2022-10-16T06:04:42.000Z,1004.8
2022-10-16T06:05:54.000Z,1004.7
2022-10-16T06:07:06.000Z,1004.8
2022-10-16T06:08:18.000Z,1004.8
2022-10-16T06:09:31.000Z,1004.8
2022-10-16T06:10:43.000Z,1004.9
2022-10-16T06:11:55.000Z,1004.9
2022-10-16T06:13:07.000Z,1005
2022-10-16T06:14:19.000Z,1005
2022-10-16T06:15:32.000Z,1005
2022-10-16T06:16:44.000Z,1005
2022-10-16T06:17:56.000Z,1005.1
2022-10-16T06:19:08.000Z,1005
2022-10-16T06:20:19.000Z,1005
2022-10-16T06:21:31.000Z,1005
2022-10-16T06:22:44.000Z,1005
2022-10-16T06:23:56.000Z,1005
2022-10-16T06:25:08.000Z,1005.2
2022-10-16T06:26:20.000Z,1005
2022-10-16T06:27:32.000Z,1005.1
2022-10-16T06:28:45.000Z,1005.1
2022-10-16T06:29:57.000Z,1005.1
2022-10-16T06:31:09.000Z,1005
2022-10-16T06:32:21.000Z,1005.1
2022-10-16T06:33:33.000Z,1005.1
2022-10-16T06:34:46.000Z,1005
2022-10-16T06:35:57.000Z,1005.1
2022-10-16T06:37:09.000Z,1005.1
2022-10-16T06:38:21.000Z,1005.1
2022-10-16T06:39:33.000Z,1005
2022-10-16T06:40:45.000Z,1005
2022-10-16T06:41:58.000Z,1005.1
2022-10-16T06:43:10.000Z,1005
2022-10-16T06:44:22.000Z,1005
2022-10-16T06:45:34.000Z,1004.9
2022-10-16T06:46:46.000Z,1004.9
2022-10-16T06:47:59.000Z,1004.8
2022-10-16T06:49:11.000Z,1004.8
2022-10-16T06:50:23.000Z,1004.7
2022-10-16T06:51:34.000Z,1004.7
2022-10-16T06:52:46.000Z,1004.7
2022-10-16T06:53:58.000Z,1004.7
2022-10-16T06:55:11.000Z,1004.7
2022-10-16T06:56:23.000Z,1004.6
2022-10-16T06:57:35.000Z,1004.6
2022-10-16T06:58:47.000Z,1004.7
2022-10-16T06:59:59.000Z,1004.8
2022-10-16T07:01:12.000Z,1004.9
2022-10-16T07:02:24.000Z,1004.9
2022-10-16T07:03:36.000Z,1005
2022-10-16T07:04:48.000Z,1005.1
2022-10-16T07:06:00.000Z,1005.1
2022-10-16T07:07:12.000Z,1005.1
2022-10-16T07:08:24.000Z,1005.2
2022-10-16T07:09:36.000Z,1005.2
2022-10-16T07:10:48.000Z,1005.3
2022-10-16T07:12:00.000Z,1005.3
2022-10-16T07:13:12.000Z,1005.4
2022-10-16T07:14:25.000Z,1005.5
2022-10-16T07:15:37.000Z,1005.5
2022-10-16T07:16:49.000Z,1005.5
2022-10-16T07:18:01.000Z,1005.5
2022-10-16T07:19:13.000Z,1005.4
2022-10-16T07:20:26.000Z,1005.5
2022-10-16T07:21:38.000Z,1005.5
2022-10-16T07:22:49.000Z,1005.6
2022-10-16T07:24:01.000Z,1005.5
2022-10-16T07:25:13.000Z,1005.5
2022-10-16T07:26:26.000Z,1005.5
2022-10-16T07:27:38.000Z,1005.5
2022-10-16T07:28:50.000Z,1005.5
2022-10-16T07:30:02.000Z,1005.5
2022-10-16T07:31:14.000Z,1005.6
2022-10-16T07:32:26.000Z,1005.6
2022-10-16T07:33:39.000Z,1005.8
2022-10-16T07:34:51.000Z,1005.8
2022-10-16T07:36:03.000Z,1005.8
2022-10-16T07:37:15.000Z,1005.9
2022-10-16T07:38:26.000Z,1005.9
2022-10-16T07:39:39.000Z,1005.9
2022-10-16T07:40:51.000Z,1005.9
2022-10-16T07:42:03.000Z,1005.9
2022-10-16T07:43:15.000Z,1005.8
2022-10-16T07:44:27.000Z,1005.8
2022-10-16T07:46:52.000Z,1005.9
2022-10-16T07:48:04.000Z,1005.9
2022-10-16T07:49:16.000Z,1005.9
2022-10-16T07:50:28.000Z,1005.9
2022-10-16T07:51:40.000Z,1005.9
2022-10-16T07:52:53.000Z,1005.9
2022-10-16T07:54:04.000Z,1005.9
2022-10-16T07:55:16.000Z,1006
2022-10-16T07:56:28.000Z,1005.9
2022-10-16T07:57:40.000Z,1005.9
2022-10-16T07:58:53.000Z,1005.9
2022-10-16T08:00:05.000Z,1005.9
2022-10-16T08:01:17.000Z,1005.9
2022-10-16T08:02:29.000Z,1005.9
2022-10-16T08:03:41.000Z,1005.9
2022-10-16T08:04:53.000Z,1006
2022-10-16T08:06:06.000Z,1006.1
2022-10-16T08:07:18.000Z,1006.1
2022-10-16T08:08:30.000Z,1006.1
2022-10-16T08:09:41.000Z,1006.1
2022-10-16T08:10:53.000Z,1006.1
2022-10-16T08:12:06.000Z,1006.1
2022-10-16T08:13:18.000Z,1006.2
2022-10-16T08:14:30.000Z,1006.3
2022-10-16T08:15:42.000Z,1006.3
2022-10-16T08:16:54.000Z,1006.3
2022-10-16T08:18:06.000Z,1006.4
2022-10-16T08:19:19.000Z,1006.5
2022-10-16T08:20:31.000Z,1006.5
2022-10-16T08:21:43.000Z,1006.4
2022-10-16T08:22:55.000Z,1006.4
2022-10-16T08:24:07.000Z,1006.5
2022-10-16T08:26:31.000Z,1006.4
2022-10-16T08:27:43.000Z,1006.3
2022-10-16T08:28:55.000Z,1006.4
2022-10-16T08:30:07.000Z,1006.4
2022-10-16T08:31:20.000Z,1006.4
2022-10-16T08:31:28.000Z,1006.4
2022-10-16T08:32:32.000Z,1006.3
2022-10-16T08:33:44.000Z,1006.3
2022-10-16T08:34:56.000Z,1006.4
2022-10-16T08:36:08.000Z,1006.4
2022-10-16T08:37:20.000Z,1006.3
2022-10-16T08:38:33.000Z,1006.4
2022-10-16T08:39:45.000Z,1006.4
2022-10-16T08:40:56.000Z,1006.5
2022-10-16T08:42:08.000Z,1006.6
2022-10-16T08:43:20.000Z,1006.5
2022-10-16T08:44:33.000Z,1006.5
2022-10-16T08:45:45.000Z,1006.5
2022-10-16T08:46:57.000Z,1006.5
2022-10-16T08:48:09.000Z,1006.5
2022-10-16T08:49:21.000Z,1006.5
2022-10-16T08:50:33.000Z,1006.6
2022-10-16T08:51:46.000Z,1006.5
2022-10-16T08:52:58.000Z,1006.5
2022-10-16T08:54:10.000Z,1006.5
2022-10-16T08:55:22.000Z,1006.5
2022-10-16T08:56:33.000Z,1006.6
2022-10-16T08:57:46.000Z,1006.5
2022-10-16T08:58:58.000Z,1006.6
2022-10-16T09:00:10.000Z,1006.6
2022-10-16T09:01:22.000Z,1006.6
2022-10-16T09:02:34.000Z,1006.5
2022-10-16T09:03:47.000Z,1006.5
2022-10-16T09:04:59.000Z,1006.5
2022-10-16T09:06:11.000Z,1006.6
2022-10-16T09:07:23.000Z,1006.6
2022-10-16T09:08:35.000Z,1006.6
2022-10-16T09:09:47.000Z,1006.7
2022-10-16T09:11:00.000Z,1006.6
2022-10-16T09:12:11.000Z,1006.7
2022-10-16T09:13:23.000Z,1006.7
2022-10-16T09:15:47.000Z,1006.8
2022-10-16T09:17:00.000Z,1006.8
2022-10-16T09:18:12.000Z,1006.8
2022-10-16T09:19:24.000Z,1006.8
2022-10-16T09:20:36.000Z,1006.8
2022-10-16T09:20:45.526Z,1006.8
2022-10-16T09:21:48.000Z,1006.8
2022-10-16T09:23:00.000Z,1006.9
2022-10-16T09:24:13.000Z,1006.8
2022-10-16T09:25:25.000Z,1006.8
2022-10-16T09:26:37.000Z,1006.8
2022-10-16T09:27:48.000Z,1006.9
2022-10-16T09:30:13.000Z,1006.9
2022-10-16T09:31:25.000Z,1006.9
2022-10-16T09:32:37.000Z,1006.9
2022-10-16T09:33:49.000Z,1006.8
2022-10-16T09:35:01.000Z,1006.9
2022-10-16T09:35:10.767Z,1006.8
2022-10-16T09:36:14.000Z,1006.9
2022-10-16T09:37:26.000Z,1006.9
2022-10-16T09:38:38.000Z,1007
2022-10-16T09:39:50.000Z,1007
2022-10-16T09:41:02.000Z,1006.9
2022-10-16T09:42:14.000Z,1006.9
2022-10-16T09:43:26.000Z,1007
2022-10-16T09:44:38.000Z,1006.9
2022-10-16T09:47:02.000Z,1006.8
2022-10-16T09:48:14.000Z,1006.8
2022-10-16T09:49:27.000Z,1006.9
2022-10-16T09:50:38.000Z,1006.8
2022-10-16T09:51:50.000Z,1006.9
2022-10-16T09:52:00.349Z,1006.8
2022-10-16T09:53:02.000Z,1006.9
2022-10-16T09:54:14.000Z,1007
2022-10-16T09:55:26.000Z,1007.1
2022-10-16T09:56:39.000Z,1007.1
2022-10-16T09:57:51.000Z,1007.1
2022-10-16T09:59:03.000Z,1007.2
2022-10-16T10:00:15.000Z,1007.2
2022-10-16T10:01:27.000Z,1007.3
2022-10-16T10:02:40.000Z,1007.2
2022-10-16T10:03:52.000Z,1007.1
2022-10-16T10:05:04.000Z,1007.2
2022-10-16T10:06:15.000Z,1007.3
2022-10-16T10:07:27.000Z,1007.3
2022-10-16T10:08:40.000Z,1007.3
2022-10-16T10:09:52.000Z,1007.4
2022-10-16T10:11:04.000Z,1007.3
2022-10-16T10:12:16.000Z,1007.2
2022-10-16T10:13:28.000Z,1007.3
2022-10-16T10:14:40.000Z,1007.2
2022-10-16T10:15:53.000Z,1007.1
2022-10-16T10:17:05.000Z,1007.1
2022-10-16T10:18:17.000Z,1007.1
2022-10-16T10:19:29.000Z,1007.1
2022-10-16T10:20:41.000Z,1007.1
2022-10-16T10:21:53.000Z,1007.2
2022-10-16T10:23:05.000Z,1007.1
2022-10-16T10:24:17.000Z,1007.2
2022-10-16T10:25:29.000Z,1007.2
2022-10-16T10:26:41.000Z,1007.2
2022-10-16T10:27:53.000Z,1007.2
2022-10-16T10:29:06.000Z,1007.3
2022-10-16T10:30:18.000Z,1007.2
2022-10-16T10:31:30.000Z,1007.2
2022-10-16T10:32:42.000Z,1007.3
2022-10-16T10:33:54.000Z,1007.3
2022-10-16T10:35:07.000Z,1007.3
2022-10-16T10:36:19.000Z,1007.4
2022-10-16T10:37:30.000Z,1007.4
2022-10-16T10:38:42.000Z,1007.4
2022-10-16T10:39:54.000Z,1007.3
2022-10-16T10:41:06.000Z,1007.3
2022-10-16T10:42:19.000Z,1007.3
2022-10-16T10:43:31.000Z,1007.3
2022-10-16T10:44:43.000Z,1007.3
2022-10-16T10:45:55.000Z,1007.3
2022-10-16T10:47:07.000Z,1007.3
2022-10-16T10:48:20.000Z,1007.4
2022-10-16T10:49:32.000Z,1007.3
2022-10-16T10:50:44.000Z,1007.3
2022-10-16T10:51:56.000Z,1007.4
2022-10-16T10:53:07.000Z,1007.4
2022-10-16T10:54:20.000Z,1007.4
2022-10-16T10:55:32.000Z,1007.4
2022-10-16T10:56:44.000Z,1007.4
2022-10-16T10:57:56.000Z,1007.4
2022-10-16T10:59:08.000Z,1007.4
2022-10-16T11:00:20.000Z,1007.3
2022-10-16T11:01:33.000Z,1007.3
2022-10-16T11:02:45.000Z,1007.3
2022-10-16T11:03:57.000Z,1007.4
2022-10-16T11:05:09.000Z,1007.3
2022-10-16T11:06:21.000Z,1007.3
2022-10-16T11:07:34.000Z,1007.4
2022-10-16T11:08:45.000Z,1007.3
2022-10-16T11:09:57.000Z,1007.4
2022-10-16T11:11:09.000Z,1007.4
2022-10-16T11:12:21.000Z,1007.4
2022-10-16T11:13:33.000Z,1007.4
2022-10-16T11:14:46.000Z,1007.5
2022-10-16T11:15:58.000Z,1007.5
2022-10-16T11:17:10.000Z,1007.5
2022-10-16T11:18:22.000Z,1007.5
2022-10-16T11:19:34.000Z,1007.5
2022-10-16T11:20:47.000Z,1007.4
2022-10-16T11:21:59.000Z,1007.5
2022-10-16T11:23:11.000Z,1007.5
2022-10-16T11:24:22.000Z,1007.5
2022-10-16T11:25:34.000Z,1007.5
2022-10-16T11:26:47.000Z,1007.5
2022-10-16T11:27:59.000Z,1007.5
2022-10-16T11:29:11.000Z,1007.6
2022-10-16T11:30:23.000Z,1007.6
2022-10-16T11:31:35.000Z,1007.5
2022-10-16T11:32:47.000Z,1007.6
2022-10-16T11:34:00.000Z,1007.6
2022-10-16T11:35:12.000Z,1007.5
2022-10-16T11:36:24.000Z,1007.5
2022-10-16T11:37:36.000Z,1007.5
2022-10-16T11:38:48.000Z,1007.5
2022-10-16T11:40:00.000Z,1007.5
2022-10-16T11:41:12.000Z,1007.6
2022-10-16T11:42:24.000Z,1007.5
2022-10-16T11:43:36.000Z,1007.6
2022-10-16T11:44:48.000Z,1007.6
2022-10-16T11:46:01.000Z,1007.5
2022-10-16T11:47:13.000Z,1007.5
2022-10-16T11:48:25.000Z,1007.5
2022-10-16T11:49:37.000Z,1007.5
2022-10-16T11:52:01.000Z,1007.5
2022-10-16T11:54:26.000Z,1007.6
2022-10-16T11:55:37.000Z,1007.6
2022-10-16T11:56:49.000Z,1007.6
2022-10-16T11:56:59.000Z,1007.5
2022-10-16T11:58:01.000Z,1007.6
2022-10-16T11:59:14.000Z,1007.5
2022-10-16T11:59:24.085Z,1007.5
2022-10-16T12:00:26.000Z,1007.6
2022-10-16T12:01:38.000Z,1007.6
2022-10-16T12:02:50.000Z,1007.6
2022-10-16T12:04:02.000Z,1007.6
2022-10-16T12:05:14.000Z,1007.6
2022-10-16T12:06:27.000Z,1007.6
2022-10-16T12:07:39.000Z,1007.6
2022-10-16T12:08:51.000Z,1007.6
2022-10-16T12:10:03.000Z,1007.7
2022-10-16T12:11:14.000Z,1007.6
2022-10-16T12:12:27.000Z,1007.7
2022-10-16T12:13:39.000Z,1007.7
2022-10-16T12:14:51.000Z,1007.7
2022-10-16T12:16:03.000Z,1007.7
2022-10-16T12:17:15.000Z,1007.7
2022-10-16T12:18:28.000Z,1007.6
2022-10-16T12:19:40.000Z,1007.6
2022-10-16T12:20:52.000Z,1007.7
2022-10-16T12:22:04.000Z,1007.7
2022-10-16T12:23:16.000Z,1007.6
2022-10-16T12:24:28.000Z,1007.6
2022-10-16T12:25:41.000Z,1007.6
2022-10-16T12:26:52.000Z,1007.6
2022-10-16T12:28:04.000Z,1007.6
2022-10-16T12:29:16.000Z,1007.6
2022-10-16T12:30:28.000Z,1007.5
2022-10-16T12:31:41.000Z,1007.5
2022-10-16T12:32:53.000Z,1007.6
2022-10-16T12:34:05.000Z,1007.5
2022-10-16T12:35:17.000Z,1007.6
2022-10-16T12:36:29.000Z,1007.5
2022-10-16T12:37:41.000Z,1007.6
2022-10-16T12:40:06.000Z,1007.6
2022-10-16T12:41:18.000Z,1007.6
2022-10-16T12:42:29.000Z,1007.6
2022-10-16T12:43:41.000Z,1007.6
2022-10-16T12:45:04.000Z,1007.6
2022-10-16T12:46:06.000Z,1007.5
2022-10-16T12:47:18.000Z,1007.6
2022-10-16T12:48:30.000Z,1007.6
2022-10-16T12:49:42.000Z,1007.6
2022-10-16T12:50:55.000Z,1007.6
2022-10-16T12:51:04.127Z,1007.7
2022-10-16T12:52:07.000Z,1007.6
2022-10-16T12:53:19.000Z,1007.6
2022-10-16T12:54:31.000Z,1007.6
2022-10-16T12:55:43.000Z,1007.6
2022-10-16T12:56:55.000Z,1007.6
2022-10-16T12:58:07.000Z,1007.6
2022-10-16T12:59:19.000Z,1007.6
2022-10-16T13:00:31.000Z,1007.7
2022-10-16T13:01:43.000Z,1007.6
2022-10-16T13:02:55.000Z,1007.6
2022-10-16T13:04:08.000Z,1007.6
2022-10-16T13:05:20.000Z,1007.7
2022-10-16T13:06:32.000Z,1007.7
2022-10-16T13:07:44.000Z,1007.7
2022-10-16T13:08:56.000Z,1007.6
2022-10-16T13:10:09.000Z,1007.7
2022-10-16T13:11:21.000Z,1007.7
2022-10-16T13:12:33.000Z,1007.7
2022-10-16T13:13:44.000Z,1007.8
2022-10-16T13:14:56.000Z,1007.8
2022-10-16T13:16:08.000Z,1007.8
2022-10-16T13:17:21.000Z,1007.8
2022-10-16T13:18:33.000Z,1007.8
2022-10-16T13:19:45.000Z,1007.8
2022-10-16T13:20:57.000Z,1007.9
2022-10-16T13:22:09.000Z,1007.8
2022-10-16T13:23:22.000Z,1007.9
2022-10-16T13:24:34.000Z,1007.9
2022-10-16T13:25:46.000Z,1007.9
2022-10-16T13:26:58.000Z,1007.9
2022-10-16T13:28:10.000Z,1008
2022-10-16T13:29:22.000Z,1008
2022-10-16T13:30:34.000Z,1008
2022-10-16T13:31:46.000Z,1008
2022-10-16T13:32:58.000Z,1008.1
2022-10-16T13:34:10.000Z,1008.1
2022-10-16T13:35:22.000Z,1008.1
2022-10-16T13:36:35.000Z,1008.1
2022-10-16T13:37:47.000Z,1008
2022-10-16T13:38:59.000Z,1008.1
2022-10-16T13:40:11.000Z,1008.1
2022-10-16T13:41:23.000Z,1008.1
2022-10-16T13:42:36.000Z,1008.1
2022-10-16T13:43:48.000Z,1008
2022-10-16T13:45:00.000Z,1008.1
2022-10-16T13:46:11.000Z,1008.1
2022-10-16T13:47:23.000Z,1008.1
2022-10-16T13:48:35.000Z,1008.1
2022-10-16T13:49:48.000Z,1008.1
2022-10-16T13:51:00.000Z,1008.2
2022-10-16T13:52:11.000Z,1008.2
2022-10-16T13:53:23.000Z,1008.1
2022-10-16T13:54:35.000Z,1008.2
2022-10-16T13:55:48.000Z,1008.2
2022-10-16T13:57:00.000Z,1008.2
2022-10-16T13:58:12.000Z,1008.2
2022-10-16T13:59:24.000Z,1008.2
2022-10-16T14:00:36.000Z,1008.2
2022-10-16T14:01:49.000Z,1008.2
2022-10-16T14:03:01.000Z,1008.3
2022-10-16T14:04:13.000Z,1008.3
2022-10-16T14:05:25.000Z,1008.3
2022-10-16T14:06:37.000Z,1008.3
2022-10-16T14:07:48.000Z,1008.3
2022-10-16T14:09:01.000Z,1008.3
2022-10-16T14:10:13.000Z,1008.3
2022-10-16T14:11:25.000Z,1008.3
2022-10-16T14:12:37.000Z,1008.3
2022-10-16T14:13:49.000Z,1008.3
2022-10-16T14:15:02.000Z,1008.3
2022-10-16T14:16:14.000Z,1008.3
2022-10-16T14:17:26.000Z,1008.3
2022-10-16T14:18:38.000Z,1008.3
2022-10-16T14:19:50.000Z,1008.3
2022-10-16T14:21:02.000Z,1008.3
2022-10-16T14:22:15.000Z,1008.3
2022-10-16T14:23:27.000Z,1008.3
2022-10-16T14:24:38.000Z,1008.3
2022-10-16T14:25:50.000Z,1008.4
2022-10-16T14:27:02.000Z,1008.3
2022-10-16T14:28:15.000Z,1008.3
2022-10-16T14:29:27.000Z,1008.3
2022-10-16T14:30:39.000Z,1008.3
2022-10-16T14:31:51.000Z,1008.2
2022-10-16T14:33:03.000Z,1008.2
2022-10-16T14:34:16.000Z,1008.2
2022-10-16T14:35:28.000Z,1008.2
2022-10-16T14:36:40.000Z,1008.2
2022-10-16T14:37:52.000Z,1008.2
2022-10-16T14:39:04.000Z,1008.3
2022-10-16T14:40:15.000Z,1008.3
2022-10-16T14:41:28.000Z,1008.3
2022-10-16T14:42:40.000Z,1008.4
2022-10-16T14:43:52.000Z,1008.4
2022-10-16T14:45:04.000Z,1008.4
2022-10-16T14:46:16.000Z,1008.4
2022-10-16T14:47:29.000Z,1008.4
2022-10-16T14:48:41.000Z,1008.4
2022-10-16T14:49:53.000Z,1008.4
2022-10-16T14:51:05.000Z,1008.4
2022-10-16T14:52:17.000Z,1008.5
2022-10-16T14:53:30.000Z,1008.5
2022-10-16T14:54:42.000Z,1008.5
2022-10-16T14:55:53.000Z,1008.5
2022-10-16T14:57:05.000Z,1008.4
2022-10-16T14:58:17.000Z,1008.4
2022-10-16T14:59:29.000Z,1008.4
2022-10-16T15:00:42.000Z,1008.4
2022-10-16T15:01:54.000Z,1008.5
2022-10-16T15:03:06.000Z,1008.5
2022-10-16T15:04:18.000Z,1008.6
2022-10-16T15:05:30.000Z,1008.5